Fighter — LIUV — position and weather

sailwx.info

Track history (hours):
 
Tides and Currents Weather Stations Pressure Air Temp Water Temp Dewpoint Dewpoint Depression Visibility Wind Speed Wind Dir Waves Ship Positions

Fighter

Last reported at 2018-Jan-23 23:58 UTC. Time now 2018-Jan-24 00:02 UTC.
Position N 68°42' E 015°25'.

Length 61 m; draft 4.1 m.

Type: Cargo ship. MMSI: 259849000.

Date/timePositionNaut miles runAvg speedWind from/ knotsBaromVisibWave heightAir tempDewpointWater temp
2018-Jan-23 23:58N 68°42' E 015°25'0 0.0
2018-Jan-23 23:29N 68°42' E 015°25'0 0.0
2018-Jan-23 22:59N 68°42' E 015°25'0 0.0
2018-Jan-23 22:29N 68°42' E 015°25'0 0.0
2018-Jan-23 22:00N 68°42' E 015°25'0 0.0
2018-Jan-23 21:30N 68°42' E 015°25'0 0.0
2018-Jan-23 21:00N 68°42' E 015°25'0 0.0
2018-Jan-23 20:28N 68°42' E 015°25'0 0.0
2018-Jan-23 19:58N 68°42' E 015°25'2 3.6
2018-Jan-23 19:30N 68°40' E 015°25'5 9.9
2018-Jan-23 19:00N 68°37' E 015°17'5 9.6
2018-Jan-23 18:30N 68°32' E 015°09'5 9.3
2018-Jan-23 18:00N 68°28' E 015°12'510.9
2018-Jan-23 17:30N 68°23' E 015°05'3 6.0
2018-Jan-23 17:00N 68°20' E 015°02'0 0.0
2018-Jan-23 16:30N 68°20' E 015°02'0 0.0
2018-Jan-23 16:00N 68°20' E 015°02'0 0.0
2018-Jan-23 15:30N 68°20' E 015°02'0 0.0
2018-Jan-23 15:00N 68°20' E 015°02'0 0.0
2018-Jan-23 14:28N 68°20' E 015°02'0 0.0
2018-Jan-23 13:59N 68°20' E 015°02'0 0.0
2018-Jan-23 13:30N 68°20' E 015°02'0 0.0
2018-Jan-23 13:00N 68°20' E 015°02'0 0.0
2018-Jan-23 12:30N 68°20' E 015°02'0 0.0
2018-Jan-23 12:00N 68°20' E 015°02'0 0.0
2018-Jan-23 11:30N 68°20' E 015°02'0 0.0
2018-Jan-23 11:00N 68°20' E 015°02'0 0.0
2018-Jan-23 10:30N 68°20' E 015°02'0 0.0
2018-Jan-23 10:00N 68°20' E 015°02'0 0.0
2018-Jan-23 09:31N 68°20' E 015°02'0 0.0
2018-Jan-23 09:00N 68°20' E 015°02'0 0.0
2018-Jan-23 08:30N 68°20' E 015°02'0 0.0
2018-Jan-23 08:00N 68°20' E 015°02'0 0.0
2018-Jan-23 07:30N 68°20' E 015°02'0 0.2
2018-Jan-23 07:00N 68°20' E 015°02'0 0.0
2018-Jan-23 06:31N 68°20' E 015°02'0 0.0
2018-Jan-23 06:00N 68°20' E 015°02'0 0.0
2018-Jan-23 05:30N 68°20' E 015°02'0 0.0
2018-Jan-23 05:00N 68°20' E 015°02'0 0.0
2018-Jan-23 04:30N 68°20' E 015°02'0 0.0
2018-Jan-23 04:00N 68°20' E 015°02'0 0.0
2018-Jan-23 03:30N 68°20' E 015°02'0 0.0
2018-Jan-23 03:00N 68°20' E 015°02'0 0.0
2018-Jan-23 02:30N 68°20' E 015°02'0 0.0
2018-Jan-23 02:00N 68°20' E 015°02'0 0.0
2018-Jan-23 01:30N 68°20' E 015°02'0 0.0
2018-Jan-23 01:00N 68°20' E 015°02'0 0.0
2018-Jan-23 00:30N 68°20' E 015°02'0 0.0
2018-Jan-23 00:00N 68°20' E 015°02'0 0.0
2018-Jan-22 23:30N 68°20' E 015°02'0 0.0
2018-Jan-22 23:00N 68°20' E 015°02'0 0.0
2018-Jan-22 22:30N 68°20' E 015°02'0 0.0
2018-Jan-22 22:00N 68°20' E 015°02'2 4.9
2018-Jan-22 21:30N 68°23' E 015°04'511.0
2018-Jan-22 21:00N 68°28' E 015°12'4 9.0
2018-Jan-22 20:31N 68°32' E 015°09'5 9.8
2018-Jan-22 20:00N 68°36' E 015°16'510.2
2018-Jan-22 19:30N 68°40' E 015°25'2 3.8
2018-Jan-22 19:00N 68°42' E 015°25'0 0.0
2018-Jan-22 18:30N 68°42' E 015°25'4 8.3
2018-Jan-22 18:01N 68°38' E 015°21'510.0
2018-Jan-22 17:30N 68°35' E 015°12'5 9.3
2018-Jan-22 17:00N 68°30' E 015°11'4 9.0
2018-Jan-22 16:30N 68°26' E 015°08'510.7
2018-Jan-22 16:00N 68°21' E 015°02'0 0.6
2018-Jan-22 15:28N 68°20' E 015°02'0 0.0
2018-Jan-22 14:58N 68°20' E 015°02'0 0.0
2018-Jan-22 14:29N 68°20' E 015°02'0 0.0
2018-Jan-22 13:59N 68°20' E 015°02'0 0.0
2018-Jan-22 13:29N 68°20' E 015°02'0 0.0
2018-Jan-22 13:00N 68°20' E 015°02'0 0.0
2018-Jan-22 12:30N 68°20' E 015°02'0 0.0
2018-Jan-22 12:00N 68°20' E 015°02'0 0.0
2018-Jan-22 11:28N 68°20' E 015°02'0 0.1
2018-Jan-22 10:58N 68°20' E 015°02'0 0.0
2018-Jan-22 10:28N 68°20' E 015°02'0 0.0
2018-Jan-22 09:59N 68°20' E 015°02'0 0.0
2018-Jan-22 09:29N 68°20' E 015°02'0 0.0
2018-Jan-22 08:59N 68°20' E 015°02'0 0.0
2018-Jan-22 08:30N 68°20' E 015°02'0 0.0
2018-Jan-22 08:00N 68°20' E 015°02'0 0.0
2018-Jan-22 07:30N 68°20' E 015°02'0 0.3
2018-Jan-22 06:58N 68°20' E 015°02'0 0.0
2018-Jan-22 06:28N 68°20' E 015°02'0 0.0
2018-Jan-22 05:58N 68°20' E 015°02'0 0.0
2018-Jan-22 05:29N 68°20' E 015°02'0 0.0
2018-Jan-22 04:59N 68°20' E 015°02'0 0.0
2018-Jan-22 04:29N 68°20' E 015°02'0 0.0
2018-Jan-22 04:00N 68°20' E 015°02'0 0.0
2018-Jan-22 03:30N 68°20' E 015°02'0 0.0
2018-Jan-22 03:00N 68°20' E 015°02'0 0.0
2018-Jan-22 02:28N 68°20' E 015°02'0 0.0
2018-Jan-22 01:58N 68°20' E 015°02'0 0.0
2018-Jan-22 01:28N 68°20' E 015°02'0 0.0
2018-Jan-22 00:59N 68°20' E 015°02'0 0.0
2018-Jan-22 00:29N 68°20' E 015°02'0 0.0
2018-Jan-21 23:59N 68°20' E 015°02'0 0.0
2018-Jan-21 23:30N 68°20' E 015°02'0 0.0
2018-Jan-21 23:00N 68°20' E 015°02'0 0.0
2018-Jan-21 22:30N 68°20' E 015°02'0 0.0
2018-Jan-21 21:58N 68°20' E 015°02'0 0.0
2018-Jan-21 21:28N 68°20' E 015°02'0 0.0
2018-Jan-21 20:58N 68°20' E 015°02'0 0.0
2018-Jan-21 20:29N 68°20' E 015°02'0 0.0
2018-Jan-21 19:59N 68°20' E 015°02'0 0.0
2018-Jan-21 19:29N 68°20' E 015°02'0 0.0
2018-Jan-21 19:00N 68°20' E 015°02'0 0.0
2018-Jan-21 18:30N 68°20' E 015°02'0 0.0
2018-Jan-21 18:00N 68°20' E 015°02'0 0.0
2018-Jan-21 17:28N 68°20' E 015°02'0 0.0
2018-Jan-21 16:58N 68°20' E 015°02'0 0.0
2018-Jan-21 16:28N 68°20' E 015°02'0 0.0
2018-Jan-21 15:59N 68°20' E 015°02'0 0.0
2018-Jan-21 15:29N 68°20' E 015°02'0 0.0
2018-Jan-21 14:59N 68°20' E 015°02'0 0.0
2018-Jan-21 14:29N 68°20' E 015°02'0 0.5
2018-Jan-21 13:59N 68°20' E 015°02'0 0.0
2018-Jan-21 13:30N 68°20' E 015°02'0 0.0
2018-Jan-21 13:00N 68°20' E 015°02'0 0.0
2018-Jan-21 12:30N 68°20' E 015°02'0 0.0
2018-Jan-21 11:58N 68°20' E 015°02'0 0.0
2018-Jan-21 11:28N 68°20' E 015°02'0 0.0
2018-Jan-21 10:58N 68°20' E 015°02'0 0.0
2018-Jan-21 10:30N 68°20' E 015°02'0 0.0
2018-Jan-21 10:00N 68°20' E 015°02'0 0.0
2018-Jan-21 09:30N 68°20' E 015°02'0 0.5
2018-Jan-21 09:00N 68°20' E 015°02'0 0.0
2018-Jan-21 08:30N 68°20' E 015°02'0 0.0
2018-Jan-21 08:00N 68°20' E 015°02'0 0.0
2018-Jan-21 07:28N 68°20' E 015°02'0 0.0
2018-Jan-21 06:58N 68°20' E 015°02'0 0.0
2018-Jan-21 06:28N 68°20' E 015°02'0 0.0
2018-Jan-21 05:59N 68°20' E 015°02'0 0.0
2018-Jan-21 05:29N 68°20' E 015°02'0 0.0
2018-Jan-21 04:59N 68°20' E 015°02'0 0.0
2018-Jan-21 04:30N 68°20' E 015°02'0 0.0
2018-Jan-21 04:00N 68°20' E 015°02'0 0.0
2018-Jan-21 03:30N 68°20' E 015°02'0 0.0
2018-Jan-21 02:58N 68°20' E 015°02'0 0.0
2018-Jan-21 02:28N 68°20' E 015°02'0 0.0
2018-Jan-21 01:59N 68°20' E 015°02'0 0.0
2018-Jan-21 01:29N 68°20' E 015°02'0 0.0
2018-Jan-21 00:59N 68°20' E 015°02'0 0.0
2018-Jan-21 00:30N 68°20' E 015°02'0 0.0
2018-Jan-21 00:00N 68°20' E 015°02'0 0.0
2018-Jan-20 23:30N 68°20' E 015°02'0 0.0
2018-Jan-20 23:01N 68°20' E 015°02'0 0.0
2018-Jan-20 22:28N 68°20' E 015°02'0 0.0
2018-Jan-20 21:58N 68°20' E 015°02'0 0.0
2018-Jan-20 21:30N 68°20' E 015°02'2 3.6
2018-Jan-20 21:00N 68°19' E 014°59'3 5.5
2018-Jan-20 20:30N 68°16' E 014°58'4 8.0
2018-Jan-20 20:00N 68°13' E 015°01'510.4
2018-Jan-20 19:30N 68°13' E 015°15'510.2
2018-Jan-20 19:00N 68°13' E 015°29'5 9.6
2018-Jan-20 18:30N 68°15' E 015°40'510.3
2018-Jan-20 18:00N 68°19' E 015°50'510.3
2018-Jan-20 17:30N 68°23' E 015°59'510.0
2018-Jan-20 17:00N 68°27' E 016°05'510.0
2018-Jan-20 16:30N 68°32' E 016°11'5 9.1
2018-Jan-20 16:00N 68°34' E 016°23'4 7.2
2018-Jan-20 15:30N 68°35' E 016°32'4 8.7
2018-Jan-20 15:00N 68°39' E 016°36'5 9.2
2018-Jan-20 14:30N 68°43' E 016°41'4 8.3
2018-Jan-20 14:00N 68°47' E 016°36'0 0.3
2018-Jan-20 13:28N 68°47' E 016°36'0 0.0
2018-Jan-20 12:58N 68°47' E 016°36'0 0.0
2018-Jan-20 12:29N 68°47' E 016°36'0 0.0
2018-Jan-20 11:59N 68°47' E 016°36'0 0.0
2018-Jan-20 11:29N 68°47' E 016°36'0 0.0
2018-Jan-20 11:00N 68°47' E 016°36'0 0.0
2018-Jan-20 10:30N 68°47' E 016°36'0 0.0
2018-Jan-20 10:00N 68°47' E 016°36'0 0.0
2018-Jan-20 09:28N 68°47' E 016°36'0 0.0
2018-Jan-20 08:58N 68°47' E 016°36'0 0.0
2018-Jan-20 08:28N 68°47' E 016°36'0 0.0
2018-Jan-20 07:59N 68°47' E 016°36'0 0.1
2018-Jan-20 07:29N 68°47' E 016°36'0 0.1
2018-Jan-20 06:59N 68°47' E 016°36'0 0.0
2018-Jan-20 06:30N 68°47' E 016°36'0 0.0
2018-Jan-20 06:00N 68°47' E 016°36'0 0.0
2018-Jan-20 05:30N 68°47' E 016°36'0 0.0
2018-Jan-20 04:58N 68°47' E 016°36'0 0.0
2018-Jan-20 04:28N 68°47' E 016°36'0 0.0
2018-Jan-20 03:58N 68°47' E 016°36'0 0.0
2018-Jan-20 03:29N 68°47' E 016°36'0 0.0
2018-Jan-20 02:59N 68°47' E 016°36'0 0.0
2018-Jan-20 02:29N 68°47' E 016°36'0 0.0
2018-Jan-20 02:00N 68°47' E 016°36'0 0.0
2018-Jan-20 01:30N 68°47' E 016°36'0 0.0
2018-Jan-20 01:00N 68°47' E 016°36'0 0.0
2018-Jan-20 00:28N 68°47' E 016°36'0 0.0
2018-Jan-19 23:58N 68°47' E 016°36'0 0.0
2018-Jan-19 23:28N 68°47' E 016°36'0 0.0
2018-Jan-19 22:59N 68°47' E 016°36'0 0.0
2018-Jan-19 22:29N 68°47' E 016°36'0 0.0
2018-Jan-19 21:59N 68°47' E 016°36'0 0.0
2018-Jan-19 21:30N 68°47' E 016°36'0 0.0
2018-Jan-19 21:00N 68°47' E 016°36'0 0.0
2018-Jan-19 20:30N 68°47' E 016°36'4 8.1
2018-Jan-19 20:00N 68°50' E 016°44'510.0
2018-Jan-19 19:31N 68°53' E 016°54'5 9.9
2018-Jan-19 19:00N 68°57' E 017°04'510.0
2018-Jan-19 18:30N 69°00' E 017°14'510.2
2018-Jan-19 18:00N 69°04' E 017°21'5 9.9
2018-Jan-19 17:31N 69°07' E 017°33'510.3
2018-Jan-19 17:00N 69°08' E 017°47'510.3
2018-Jan-19 16:30N 69°11' E 018°00'5 8.9
2018-Jan-19 15:59N 69°15' E 017°58'5 9.4
2018-Jan-19 15:30N 69°20' E 018°02'4 8.9
2018-Jan-19 15:00N 69°24' E 018°06'5 9.7
2018-Jan-19 14:30N 69°29' E 018°05'4 8.6
2018-Jan-19 14:00N 69°32' E 017°56'3 6.5
2018-Jan-19 13:30N 69°28' E 017°53'0 0.0
2018-Jan-19 13:00N 69°28' E 017°53'0 0.0
2018-Jan-19 12:29N 69°28' E 017°53'0 0.0
2018-Jan-19 12:00N 69°28' E 017°53'0 0.0
2018-Jan-19 11:30N 69°28' E 017°53'0 0.0
2018-Jan-19 11:00N 69°28' E 017°53'0 0.0
2018-Jan-19 10:30N 69°28' E 017°53'0 0.0
2018-Jan-19 10:00N 69°28' E 017°53'0 0.0
2018-Jan-19 09:30N 69°28' E 017°53'0 0.0
2018-Jan-19 09:00N 69°28' E 017°53'0 0.0
2018-Jan-19 08:29N 69°28' E 017°53'0 0.3
2018-Jan-19 08:00N 69°29' E 017°53'0 0.2
2018-Jan-19 07:28N 69°29' E 017°53'0 0.0
2018-Jan-19 06:58N 69°29' E 017°53'0 0.0
2018-Jan-19 06:26N 69°29' E 017°53'0 0.0
2018-Jan-19 05:59N 69°28' E 017°53'0 0.0
2018-Jan-19 05:29N 69°28' E 017°53'0 0.0
2018-Jan-19 05:00N 69°29' E 017°53'0 0.0
2018-Jan-19 04:30N 69°29' E 017°53'0 0.0
2018-Jan-19 04:00N 69°29' E 017°53'0 0.0
2018-Jan-19 03:28N 69°29' E 017°53'0 0.0
2018-Jan-19 02:58N 69°29' E 017°53'0 0.0
2018-Jan-19 02:28N 69°29' E 017°53'0 0.0
2018-Jan-19 01:59N 69°29' E 017°53'0 0.0
2018-Jan-19 01:29N 69°29' E 017°53'0 0.0
2018-Jan-19 00:59N 69°29' E 017°53'0 0.0
2018-Jan-19 00:30N 69°28' E 017°53'0 0.0
2018-Jan-19 00:00N 69°29' E 017°53'0 0.0
2018-Jan-18 23:30N 69°29' E 017°53'0 0.0
2018-Jan-18 23:00N 69°29' E 017°53'0 0.0
2018-Jan-18 22:29N 69°29' E 017°53'0 0.0
2018-Jan-18 22:00N 69°29' E 017°53'0 0.0
2018-Jan-18 21:30N 69°29' E 017°53'0 0.0
2018-Jan-18 21:00N 69°28' E 017°53'0 0.0
2018-Jan-18 20:29N 69°29' E 017°53'0 0.0
2018-Jan-18 20:00N 69°29' E 017°53'0 0.0
2018-Jan-18 19:30N 69°29' E 017°53'0 0.0
2018-Jan-18 19:00N 69°29' E 017°53'0 0.0
2018-Jan-18 18:30N 69°29' E 017°53'0 0.0
2018-Jan-18 18:00N 69°29' E 017°53'0 0.0
2018-Jan-18 17:30N 69°29' E 017°53'0 0.0
2018-Jan-18 16:59N 69°29' E 017°53'0 0.0
2018-Jan-18 16:30N 69°29' E 017°53'0 0.2
2018-Jan-18 16:00N 69°28' E 017°53'0 0.0
2018-Jan-18 15:30N 69°28' E 017°53'0 0.0
2018-Jan-18 15:00N 69°28' E 017°53'0 0.0
2018-Jan-18 14:30N 69°28' E 017°53'0 0.0
2018-Jan-18 14:00N 69°28' E 017°53'0 0.0
2018-Jan-18 13:30N 69°28' E 017°53'0 0.0
2018-Jan-18 13:00N 69°28' E 017°53'0 0.0
2018-Jan-18 12:30N 69°28' E 017°53'0 0.1
2018-Jan-18 12:00N 69°28' E 017°53'0 0.0
2018-Jan-18 11:30N 69°28' E 017°53'0 0.0
2018-Jan-18 11:00N 69°28' E 017°53'0 0.0
2018-Jan-18 10:29N 69°28' E 017°53'0 0.0
2018-Jan-18 10:00N 69°28' E 017°53'0 0.0
2018-Jan-18 09:29N 69°28' E 017°53'0 0.0
2018-Jan-18 09:00N 69°28' E 017°53'0 0.0
2018-Jan-18 08:29N 69°28' E 017°53'0 0.4
2018-Jan-18 08:00N 69°29' E 017°52'0 0.4
2018-Jan-18 07:30N 69°29' E 017°53'0 0.0
2018-Jan-18 06:59N 69°29' E 017°53'0 0.0
2018-Jan-18 06:29N 69°29' E 017°53'0 0.0
2018-Jan-18 06:00N 69°28' E 017°53'0 0.0
2018-Jan-18 05:30N 69°29' E 017°53'0 0.0
2018-Jan-18 05:00N 69°29' E 017°53'0 0.0
2018-Jan-18 04:30N 69°29' E 017°53'0 0.0
2018-Jan-18 04:00N 69°29' E 017°53'0 0.0
2018-Jan-18 03:30N 69°29' E 017°53'0 0.0
2018-Jan-18 02:59N 69°28' E 017°53'0 0.0
2018-Jan-18 02:30N 69°29' E 017°53'0 0.0
2018-Jan-18 01:59N 69°29' E 017°53'0 0.0
2018-Jan-18 01:30N 69°29' E 017°53'0 0.0
2018-Jan-18 01:00N 69°29' E 017°53'0 0.0
2018-Jan-18 00:00N 69°29' E 017°53'0 0.1
2018-Jan-17 23:57N 69°28' E 017°53'  
Track history (hours):
 
Tides and Currents Weather Stations Pressure Air Temp Water Temp Dewpoint Dewpoint Depression Visibility Wind Speed Wind Dir Waves Ship Positions

Fighter

Last reported at 2018-Jan-23 23:58 UTC. Time now 2018-Jan-24 00:02 UTC.
Position N 68°42' E 015°25'.

Length 61 m; draft 4.1 m.

Type: Cargo ship. MMSI: 259849000.

Date/timePositionNaut miles runAvg speedWind from/ knotsBaromVisibWave heightAir tempDewpointWater temp
2018-Jan-23 23:58N 68°42' E 015°25'0 0.0
2018-Jan-23 23:29N 68°42' E 015°25'0 0.0
2018-Jan-23 22:59N 68°42' E 015°25'0 0.0
2018-Jan-23 22:29N 68°42' E 015°25'0 0.0
2018-Jan-23 22:00N 68°42' E 015°25'0 0.0
2018-Jan-23 21:30N 68°42' E 015°25'0 0.0
2018-Jan-23 21:00N 68°42' E 015°25'0 0.0
2018-Jan-23 20:28N 68°42' E 015°25'0 0.0
2018-Jan-23 19:58N 68°42' E 015°25'2 3.6
2018-Jan-23 19:30N 68°40' E 015°25'5 9.9
2018-Jan-23 19:00N 68°37' E 015°17'5 9.6
2018-Jan-23 18:30N 68°32' E 015°09'5 9.3
2018-Jan-23 18:00N 68°28' E 015°12'510.9
2018-Jan-23 17:30N 68°23' E 015°05'3 6.0
2018-Jan-23 17:00N 68°20' E 015°02'0 0.0
2018-Jan-23 16:30N 68°20' E 015°02'0 0.0
2018-Jan-23 16:00N 68°20' E 015°02'0 0.0
2018-Jan-23 15:30N 68°20' E 015°02'0 0.0
2018-Jan-23 15:00N 68°20' E 015°02'0 0.0
2018-Jan-23 14:28N 68°20' E 015°02'0 0.0
2018-Jan-23 13:59N 68°20' E 015°02'0 0.0
2018-Jan-23 13:30N 68°20' E 015°02'0 0.0
2018-Jan-23 13:00N 68°20' E 015°02'0 0.0
2018-Jan-23 12:30N 68°20' E 015°02'0 0.0
2018-Jan-23 12:00N 68°20' E 015°02'0 0.0
2018-Jan-23 11:30N 68°20' E 015°02'0 0.0
2018-Jan-23 11:00N 68°20' E 015°02'0 0.0
2018-Jan-23 10:30N 68°20' E 015°02'0 0.0
2018-Jan-23 10:00N 68°20' E 015°02'0 0.0
2018-Jan-23 09:31N 68°20' E 015°02'0 0.0
2018-Jan-23 09:00N 68°20' E 015°02'0 0.0
2018-Jan-23 08:30N 68°20' E 015°02'0 0.0
2018-Jan-23 08:00N 68°20' E 015°02'0 0.0
2018-Jan-23 07:30N 68°20' E 015°02'0 0.2
2018-Jan-23 07:00N 68°20' E 015°02'0 0.0
2018-Jan-23 06:31N 68°20' E 015°02'0 0.0
2018-Jan-23 06:00N 68°20' E 015°02'0 0.0
2018-Jan-23 05:30N 68°20' E 015°02'0 0.0
2018-Jan-23 05:00N 68°20' E 015°02'0 0.0
2018-Jan-23 04:30N 68°20' E 015°02'0 0.0
2018-Jan-23 04:00N 68°20' E 015°02'0 0.0
2018-Jan-23 03:30N 68°20' E 015°02'0 0.0
2018-Jan-23 03:00N 68°20' E 015°02'0 0.0
2018-Jan-23 02:30N 68°20' E 015°02'0 0.0
2018-Jan-23 02:00N 68°20' E 015°02'0 0.0
2018-Jan-23 01:30N 68°20' E 015°02'0 0.0
2018-Jan-23 01:00N 68°20' E 015°02'0 0.0
2018-Jan-23 00:30N 68°20' E 015°02'0 0.0
2018-Jan-23 00:00N 68°20' E 015°02'0 0.0
2018-Jan-22 23:30N 68°20' E 015°02'0 0.0
2018-Jan-22 23:00N 68°20' E 015°02'0 0.0
2018-Jan-22 22:30N 68°20' E 015°02'0 0.0
2018-Jan-22 22:00N 68°20' E 015°02'2 4.9
2018-Jan-22 21:30N 68°23' E 015°04'511.0
2018-Jan-22 21:00N 68°28' E 015°12'4 9.0
2018-Jan-22 20:31N 68°32' E 015°09'5 9.8
2018-Jan-22 20:00N 68°36' E 015°16'510.2
2018-Jan-22 19:30N 68°40' E 015°25'2 3.8
2018-Jan-22 19:00N 68°42' E 015°25'0 0.0
2018-Jan-22 18:30N 68°42' E 015°25'4 8.3
2018-Jan-22 18:01N 68°38' E 015°21'510.0
2018-Jan-22 17:30N 68°35' E 015°12'5 9.3
2018-Jan-22 17:00N 68°30' E 015°11'4 9.0
2018-Jan-22 16:30N 68°26' E 015°08'510.7
2018-Jan-22 16:00N 68°21' E 015°02'0 0.6
2018-Jan-22 15:28N 68°20' E 015°02'0 0.0
2018-Jan-22 14:58N 68°20' E 015°02'0 0.0
2018-Jan-22 14:29N 68°20' E 015°02'0 0.0
2018-Jan-22 13:59N 68°20' E 015°02'0 0.0
2018-Jan-22 13:29N 68°20' E 015°02'0 0.0
2018-Jan-22 13:00N 68°20' E 015°02'0 0.0
2018-Jan-22 12:30N 68°20' E 015°02'0 0.0
2018-Jan-22 12:00N 68°20' E 015°02'0 0.0
2018-Jan-22 11:28N 68°20' E 015°02'0 0.1
2018-Jan-22 10:58N 68°20' E 015°02'0 0.0
2018-Jan-22 10:28N 68°20' E 015°02'0 0.0
2018-Jan-22 09:59N 68°20' E 015°02'0 0.0
2018-Jan-22 09:29N 68°20' E 015°02'0 0.0
2018-Jan-22 08:59N 68°20' E 015°02'0 0.0
2018-Jan-22 08:30N 68°20' E 015°02'0 0.0
2018-Jan-22 08:00N 68°20' E 015°02'0 0.0
2018-Jan-22 07:30N 68°20' E 015°02'0 0.3
2018-Jan-22 06:58N 68°20' E 015°02'0 0.0
2018-Jan-22 06:28N 68°20' E 015°02'0 0.0
2018-Jan-22 05:58N 68°20' E 015°02'0 0.0
2018-Jan-22 05:29N 68°20' E 015°02'0 0.0
2018-Jan-22 04:59N 68°20' E 015°02'0 0.0
2018-Jan-22 04:29N 68°20' E 015°02'0 0.0
2018-Jan-22 04:00N 68°20' E 015°02'0 0.0
2018-Jan-22 03:30N 68°20' E 015°02'0 0.0
2018-Jan-22 03:00N 68°20' E 015°02'0 0.0
2018-Jan-22 02:28N 68°20' E 015°02'0 0.0
2018-Jan-22 01:58N 68°20' E 015°02'0 0.0
2018-Jan-22 01:28N 68°20' E 015°02'0 0.0
2018-Jan-22 00:59N 68°20' E 015°02'0 0.0
2018-Jan-22 00:29N 68°20' E 015°02'0 0.0
2018-Jan-21 23:59N 68°20' E 015°02'0 0.0
2018-Jan-21 23:30N 68°20' E 015°02'0 0.0
2018-Jan-21 23:00N 68°20' E 015°02'0 0.0
2018-Jan-21 22:30N 68°20' E 015°02'0 0.0
2018-Jan-21 21:58N 68°20' E 015°02'0 0.0
2018-Jan-21 21:28N 68°20' E 015°02'0 0.0
2018-Jan-21 20:58N 68°20' E 015°02'0 0.0
2018-Jan-21 20:29N 68°20' E 015°02'0 0.0
2018-Jan-21 19:59N 68°20' E 015°02'0 0.0
2018-Jan-21 19:29N 68°20' E 015°02'0 0.0
2018-Jan-21 19:00N 68°20' E 015°02'0 0.0
2018-Jan-21 18:30N 68°20' E 015°02'0 0.0
2018-Jan-21 18:00N 68°20' E 015°02'0 0.0
2018-Jan-21 17:28N 68°20' E 015°02'0 0.0
2018-Jan-21 16:58N 68°20' E 015°02'0 0.0
2018-Jan-21 16:28N 68°20' E 015°02'0 0.0
2018-Jan-21 15:59N 68°20' E 015°02'0 0.0
2018-Jan-21 15:29N 68°20' E 015°02'0 0.0
2018-Jan-21 14:59N 68°20' E 015°02'0 0.0
2018-Jan-21 14:29N 68°20' E 015°02'0 0.5
2018-Jan-21 13:59N 68°20' E 015°02'0 0.0
2018-Jan-21 13:30N 68°20' E 015°02'0 0.0
2018-Jan-21 13:00N 68°20' E 015°02'0 0.0
2018-Jan-21 12:30N 68°20' E 015°02'0 0.0
2018-Jan-21 11:58N 68°20' E 015°02'0 0.0
2018-Jan-21 11:28N 68°20' E 015°02'0 0.0
2018-Jan-21 10:58N 68°20' E 015°02'0 0.0
2018-Jan-21 10:30N 68°20' E 015°02'0 0.0
2018-Jan-21 10:00N 68°20' E 015°02'0 0.0
2018-Jan-21 09:30N 68°20' E 015°02'0 0.5
2018-Jan-21 09:00N 68°20' E 015°02'0 0.0
2018-Jan-21 08:30N 68°20' E 015°02'0 0.0
2018-Jan-21 08:00N 68°20' E 015°02'0 0.0
2018-Jan-21 07:28N 68°20' E 015°02'0 0.0
2018-Jan-21 06:58N 68°20' E 015°02'0 0.0
2018-Jan-21 06:28N 68°20' E 015°02'0 0.0
2018-Jan-21 05:59N 68°20' E 015°02'0 0.0
2018-Jan-21 05:29N 68°20' E 015°02'0 0.0
2018-Jan-21 04:59N 68°20' E 015°02'0 0.0
2018-Jan-21 04:30N 68°20' E 015°02'0 0.0
2018-Jan-21 04:00N 68°20' E 015°02'0 0.0
2018-Jan-21 03:30N 68°20' E 015°02'0 0.0
2018-Jan-21 02:58N 68°20' E 015°02'0 0.0
2018-Jan-21 02:28N 68°20' E 015°02'0 0.0
2018-Jan-21 01:59N 68°20' E 015°02'0 0.0
2018-Jan-21 01:29N 68°20' E 015°02'0 0.0
2018-Jan-21 00:59N 68°20' E 015°02'0 0.0
2018-Jan-21 00:30N 68°20' E 015°02'0 0.0
2018-Jan-21 00:00N 68°20' E 015°02'0 0.0
2018-Jan-20 23:30N 68°20' E 015°02'0 0.0
2018-Jan-20 23:01N 68°20' E 015°02'0 0.0
2018-Jan-20 22:28N 68°20' E 015°02'0 0.0
2018-Jan-20 21:58N 68°20' E 015°02'0 0.0
2018-Jan-20 21:30N 68°20' E 015°02'2 3.6
2018-Jan-20 21:00N 68°19' E 014°59'3 5.5
2018-Jan-20 20:30N 68°16' E 014°58'4 8.0
2018-Jan-20 20:00N 68°13' E 015°01'510.4
2018-Jan-20 19:30N 68°13' E 015°15'510.2
2018-Jan-20 19:00N 68°13' E 015°29'5 9.6
2018-Jan-20 18:30N 68°15' E 015°40'510.3
2018-Jan-20 18:00N 68°19' E 015°50'510.3
2018-Jan-20 17:30N 68°23' E 015°59'510.0
2018-Jan-20 17:00N 68°27' E 016°05'510.0
2018-Jan-20 16:30N 68°32' E 016°11'5 9.1
2018-Jan-20 16:00N 68°34' E 016°23'4 7.2
2018-Jan-20 15:30N 68°35' E 016°32'4 8.7
2018-Jan-20 15:00N 68°39' E 016°36'5 9.2
2018-Jan-20 14:30N 68°43' E 016°41'4 8.3
2018-Jan-20 14:00N 68°47' E 016°36'0 0.3
2018-Jan-20 13:28N 68°47' E 016°36'0 0.0
2018-Jan-20 12:58N 68°47' E 016°36'0 0.0
2018-Jan-20 12:29N 68°47' E 016°36'0 0.0
2018-Jan-20 11:59N 68°47' E 016°36'0 0.0
2018-Jan-20 11:29N 68°47' E 016°36'0 0.0
2018-Jan-20 11:00N 68°47' E 016°36'0 0.0
2018-Jan-20 10:30N 68°47' E 016°36'0 0.0
2018-Jan-20 10:00N 68°47' E 016°36'0 0.0
2018-Jan-20 09:28N 68°47' E 016°36'0 0.0
2018-Jan-20 08:58N 68°47' E 016°36'0 0.0
2018-Jan-20 08:28N 68°47' E 016°36'0 0.0
2018-Jan-20 07:59N 68°47' E 016°36'0 0.1
2018-Jan-20 07:29N 68°47' E 016°36'0 0.1
2018-Jan-20 06:59N 68°47' E 016°36'0 0.0
2018-Jan-20 06:30N 68°47' E 016°36'0 0.0
2018-Jan-20 06:00N 68°47' E 016°36'0 0.0
2018-Jan-20 05:30N 68°47' E 016°36'0 0.0
2018-Jan-20 04:58N 68°47' E 016°36'0 0.0
2018-Jan-20 04:28N 68°47' E 016°36'0 0.0
2018-Jan-20 03:58N 68°47' E 016°36'0 0.0
2018-Jan-20 03:29N 68°47' E 016°36'0 0.0
2018-Jan-20 02:59N 68°47' E 016°36'0 0.0
2018-Jan-20 02:29N 68°47' E 016°36'0 0.0
2018-Jan-20 02:00N 68°47' E 016°36'0 0.0
2018-Jan-20 01:30N 68°47' E 016°36'0 0.0
2018-Jan-20 01:00N 68°47' E 016°36'0 0.0
2018-Jan-20 00:28N 68°47' E 016°36'0 0.0
2018-Jan-19 23:58N 68°47' E 016°36'0 0.0
2018-Jan-19 23:28N 68°47' E 016°36'0 0.0
2018-Jan-19 22:59N 68°47' E 016°36'0 0.0
2018-Jan-19 22:29N 68°47' E 016°36'0 0.0
2018-Jan-19 21:59N 68°47' E 016°36'0 0.0
2018-Jan-19 21:30N 68°47' E 016°36'0 0.0
2018-Jan-19 21:00N 68°47' E 016°36'0 0.0
2018-Jan-19 20:30N 68°47' E 016°36'4 8.1
2018-Jan-19 20:00N 68°50' E 016°44'510.0
2018-Jan-19 19:31N 68°53' E 016°54'5 9.9
2018-Jan-19 19:00N 68°57' E 017°04'510.0
2018-Jan-19 18:30N 69°00' E 017°14'510.2
2018-Jan-19 18:00N 69°04' E 017°21'5 9.9
2018-Jan-19 17:31N 69°07' E 017°33'510.3
2018-Jan-19 17:00N 69°08' E 017°47'510.3
2018-Jan-19 16:30N 69°11' E 018°00'5 8.9
2018-Jan-19 15:59N 69°15' E 017°58'5 9.4
2018-Jan-19 15:30N 69°20' E 018°02'4 8.9
2018-Jan-19 15:00N 69°24' E 018°06'5 9.7
2018-Jan-19 14:30N 69°29' E 018°05'4 8.6
2018-Jan-19 14:00N 69°32' E 017°56'3 6.5
2018-Jan-19 13:30N 69°28' E 017°53'0 0.0
2018-Jan-19 13:00N 69°28' E 017°53'0 0.0
2018-Jan-19 12:29N 69°28' E 017°53'0 0.0
2018-Jan-19 12:00N 69°28' E 017°53'0 0.0
2018-Jan-19 11:30N 69°28' E 017°53'0 0.0
2018-Jan-19 11:00N 69°28' E 017°53'0 0.0
2018-Jan-19 10:30N 69°28' E 017°53'0 0.0
2018-Jan-19 10:00N 69°28' E 017°53'0 0.0
2018-Jan-19 09:30N 69°28' E 017°53'0 0.0
2018-Jan-19 09:00N 69°28' E 017°53'0 0.0
2018-Jan-19 08:29N 69°28' E 017°53'0 0.3
2018-Jan-19 08:00N 69°29' E 017°53'0 0.2
2018-Jan-19 07:28N 69°29' E 017°53'0 0.0
2018-Jan-19 06:58N 69°29' E 017°53'0 0.0
2018-Jan-19 06:26N 69°29' E 017°53'0 0.0
2018-Jan-19 05:59N 69°28' E 017°53'0 0.0
2018-Jan-19 05:29N 69°28' E 017°53'0 0.0
2018-Jan-19 05:00N 69°29' E 017°53'0 0.0
2018-Jan-19 04:30N 69°29' E 017°53'0 0.0
2018-Jan-19 04:00N 69°29' E 017°53'0 0.0
2018-Jan-19 03:28N 69°29' E 017°53'0 0.0
2018-Jan-19 02:58N 69°29' E 017°53'0 0.0
2018-Jan-19 02:28N 69°29' E 017°53'0 0.0
2018-Jan-19 01:59N 69°29' E 017°53'0 0.0
2018-Jan-19 01:29N 69°29' E 017°53'0 0.0
2018-Jan-19 00:59N 69°29' E 017°53'0 0.0
2018-Jan-19 00:30N 69°28' E 017°53'0 0.0
2018-Jan-19 00:00N 69°29' E 017°53'0 0.0
2018-Jan-18 23:30N 69°29' E 017°53'0 0.0
2018-Jan-18 23:00N 69°29' E 017°53'0 0.0
2018-Jan-18 22:29N 69°29' E 017°53'0 0.0
2018-Jan-18 22:00N 69°29' E 017°53'0 0.0
2018-Jan-18 21:30N 69°29' E 017°53'0 0.0
2018-Jan-18 21:00N 69°28' E 017°53'0 0.0
2018-Jan-18 20:29N 69°29' E 017°53'0 0.0
2018-Jan-18 20:00N 69°29' E 017°53'0 0.0
2018-Jan-18 19:30N 69°29' E 017°53'0 0.0
2018-Jan-18 19:00N 69°29' E 017°53'0 0.0
2018-Jan-18 18:30N 69°29' E 017°53'0 0.0
2018-Jan-18 18:00N 69°29' E 017°53'0 0.0
2018-Jan-18 17:30N 69°29' E 017°53'0 0.0
2018-Jan-18 16:59N 69°29' E 017°53'0 0.0
2018-Jan-18 16:30N 69°29' E 017°53'0 0.2
2018-Jan-18 16:00N 69°28' E 017°53'0 0.0
2018-Jan-18 15:30N 69°28' E 017°53'0 0.0
2018-Jan-18 15:00N 69°28' E 017°53'0 0.0
2018-Jan-18 14:30N 69°28' E 017°53'0 0.0
2018-Jan-18 14:00N 69°28' E 017°53'0 0.0
2018-Jan-18 13:30N 69°28' E 017°53'0 0.0
2018-Jan-18 13:00N 69°28' E 017°53'0 0.0
2018-Jan-18 12:30N 69°28' E 017°53'0 0.1
2018-Jan-18 12:00N 69°28' E 017°53'0 0.0
2018-Jan-18 11:30N 69°28' E 017°53'0 0.0
2018-Jan-18 11:00N 69°28' E 017°53'0 0.0
2018-Jan-18 10:29N 69°28' E 017°53'0 0.0
2018-Jan-18 10:00N 69°28' E 017°53'0 0.0
2018-Jan-18 09:29N 69°28' E 017°53'0 0.0
2018-Jan-18 09:00N 69°28' E 017°53'0 0.0
2018-Jan-18 08:29N 69°28' E 017°53'0 0.4
2018-Jan-18 08:00N 69°29' E 017°52'0 0.4
2018-Jan-18 07:30N 69°29' E 017°53'0 0.0
2018-Jan-18 06:59N 69°29' E 017°53'0 0.0
2018-Jan-18 06:29N 69°29' E 017°53'0 0.0
2018-Jan-18 06:00N 69°28' E 017°53'0 0.0
2018-Jan-18 05:30N 69°29' E 017°53'0 0.0
2018-Jan-18 05:00N 69°29' E 017°53'0 0.0
2018-Jan-18 04:30N 69°29' E 017°53'0 0.0
2018-Jan-18 04:00N 69°29' E 017°53'0 0.0
2018-Jan-18 03:30N 69°29' E 017°53'0 0.0
2018-Jan-18 02:59N 69°28' E 017°53'0 0.0
2018-Jan-18 02:30N 69°29' E 017°53'0 0.0
2018-Jan-18 01:59N 69°29' E 017°53'0 0.0
2018-Jan-18 01:30N 69°29' E 017°53'0 0.0
2018-Jan-18 01:00N 69°29' E 017°53'0 0.0
2018-Jan-18 00:00N 69°29' E 017°53'0 0.1
2018-Jan-17 23:57N 69°28' E 017°53'  

Dump ship's entire track history